Time;durP1;ratioP1;P1;durP2;ratioP2;P2;SDS_P1;SDS_P2;PMS_P1;PMS_P2;Temp;Humidity;BMP_temperature;BMP_pressure;BME280_temperature;BME280_humidity;BME280_pressure;Samples;Min_cycle;Max_cycle;Signal;HPM_P1;HPM_P2
2022/04/23 00:01:57;;;;;;;0.00;0.00;;;;;;;13.50;57.09;100682.00;5029038;28;20029;-77
2022/04/23 00:04:24;;;;;;;0.10;0.10;;;;;;;13.49;56.41;100682.06;5030362;28;20037;-77
2022/04/23 00:06:50;;;;;;;0.00;0.00;;;;;;;13.46;56.14;100677.72;5022410;28;21502;-77
2022/04/23 00:09:16;;;;;;;0.10;0.10;;;;;;;13.43;56.75;100684.00;5030365;28;20083;-77
2022/04/23 00:11:43;;;;;;;0.10;0.10;;;;;;;13.42;56.93;100676.94;5026214;28;20034;-77
2022/04/23 00:14:09;;;;;;;0.00;0.00;;;;;;;13.43;57.18;100672.47;5029595;28;20037;-77
2022/04/23 00:16:36;;;;;;;0.05;0.05;;;;;;;13.42;56.84;100670.72;5029762;28;20040;-77
2022/04/23 00:19:02;;;;;;;0.10;0.10;;;;;;;13.41;56.60;100671.69;5043898;28;20033;-77
2022/04/23 00:21:28;;;;;;;0.00;0.00;;;;;;;13.43;56.87;100669.81;5050643;28;20025;-77
2022/04/23 00:23:55;;;;;;;0.57;0.57;;;;;;;13.41;57.54;100675.19;5031230;28;20382;-77
2022/04/23 00:26:21;;;;;;;0.10;0.10;;;;;;;13.41;56.89;100672.53;5030191;28;20120;-78
2022/04/23 00:28:47;;;;;;;0.80;0.80;;;;;;;13.38;57.60;100666.44;5027149;28;20106;-77
2022/04/23 00:31:14;;;;;;;0.55;0.55;;;;;;;13.37;57.36;100667.31;5026514;28;20033;-77
2022/04/23 00:33:40;;;;;;;0.00;0.00;;;;;;;13.37;57.24;100664.66;5022908;28;20041;-77
2022/04/23 00:36:09;;;;;;;0.82;0.82;;;;;;;13.36;57.15;100670.94;5031169;28;20467;-77
2022/04/23 00:38:38;;;;;;;0.10;0.10;;;;;;;13.35;57.33;100663.88;5031602;28;20026;-77
2022/04/23 00:41:05;;;;;;;0.00;0.00;;;;;;;13.31;57.91;100667.53;5028617;28;20049;-77
2022/04/23 00:43:34;;;;;;;1.65;1.55;;;;;;;13.36;57.30;100660.28;5028721;28;20262;-77
2022/04/23 00:46:00;;;;;;;0.08;0.08;;;;;;;13.32;57.58;100663.97;5023423;28;20030;-77
2022/04/23 00:48:28;;;;;;;0.10;0.10;;;;;;;13.33;57.42;100665.69;5020436;28;20040;-77
2022/04/23 00:50:57;;;;;;;0.10;0.10;;;;;;;13.33;58.19;100663.03;5021043;28;20026;-77
2022/04/23 00:53:25;;;;;;;0.03;0.03;;;;;;;13.31;57.58;100656.91;5030102;28;20037;-77
2022/04/23 00:55:52;;;;;;;0.10;0.10;;;;;;;13.30;58.09;100655.19;5031500;28;20484;-77
2022/04/23 00:58:20;;;;;;;0.10;0.10;;;;;;;13.28;57.86;100657.88;5027853;28;20412;-77
2022/04/23 01:00:47;;;;;;;0.10;0.10;;;;;;;13.26;58.29;100655.28;5027561;28;20056;-77
2022/04/23 01:03:14;;;;;;;0.28;0.28;;;;;;;13.21;58.68;100657.22;5029162;28;20529;-76
2022/04/23 01:05:45;;;;;;;0.10;0.10;;;;;;;13.22;58.22;100658.97;5025136;28;20026;-77
2022/04/23 01:08:15;;;;;;;0.10;0.10;;;;;;;13.18;58.69;100657.31;5026090;28;20168;-77
2022/04/23 01:10:44;;;;;;;0.57;0.57;;;;;;;13.17;58.08;100654.72;5031847;28;20037;-77
2022/04/23 01:13:14;;;;;;;0.10;0.10;;;;;;;13.15;58.43;100656.56;5030675;28;20030;-77
2022/04/23 01:15:57;;;;;;;0.03;0.03;;;;;;;13.15;58.42;100652.09;5032932;28;20033;-77
2022/04/23 01:18:23;;;;;;;0.00;0.00;;;;;;;13.14;57.64;100652.16;5032334;28;20044;-77
2022/04/23 01:20:49;;;;;;;0.90;0.88;;;;;;;13.13;58.35;100656.59;5032568;28;20520;-77
2022/04/23 01:23:16;;;;;;;0.57;0.57;;;;;;;13.12;58.97;100649.53;5029791;28;20038;-77
2022/04/23 01:25:42;;;;;;;0.05;0.05;;;;;;;13.10;58.62;100654.91;5023034;28;20094;-76
2022/04/23 01:28:09;;;;;;;0.20;0.20;;;;;;;13.08;59.12;100655.88;5044592;28;20041;-76
2022/04/23 01:30:35;;;;;;;0.10;0.10;;;;;;;13.05;58.67;100658.66;5046861;28;20025;-76
2022/04/23 01:33:02;;;;;;;0.10;0.10;;;;;;;13.03;58.29;100649.84;5051407;28;20018;-76
2022/04/23 01:35:29;;;;;;;0.05;0.05;;;;;;;12.97;59.33;100658.03;5027248;28;20515;-77
2022/04/23 01:37:55;;;;;;;0.32;0.30;;;;;;;12.96;59.27;100659.84;5032646;28;20100;-77
2022/04/23 01:40:21;;;;;;;0.10;0.10;;;;;;;12.94;60.12;100665.19;5026993;28;20067;-77
2022/04/23 01:42:48;;;;;;;0.10;0.10;;;;;;;12.91;60.35;100664.41;5026950;28;20022;-77
2022/04/23 01:45:14;;;;;;;0.40;0.40;;;;;;;12.89;60.00;100667.13;5031348;28;20420;-77
2022/04/23 01:47:40;;;;;;;0.98;0.98;;;;;;;12.91;59.95;100667.97;5024399;28;20029;-77
2022/04/23 01:50:08;;;;;;;0.35;0.35;;;;;;;12.92;59.86;100671.47;5023925;28;20499;-77
2022/04/23 01:52:37;;;;;;;0.10;0.10;;;;;;;12.91;59.83;100673.28;5032472;28;20024;-77
2022/04/23 01:55:03;;;;;;;0.10;0.10;;;;;;;12.90;60.00;100674.19;5028619;28;20392;-77
2022/04/23 01:57:29;;;;;;;1.75;1.48;;;;;;;12.91;59.70;100672.38;5020625;28;20627;-77
2022/04/23 01:59:56;;;;;;;1.35;1.25;;;;;;;12.90;59.88;100671.53;5032667;28;20029;-77
2022/04/23 02:02:22;;;;;;;0.10;0.10;;;;;;;12.90;59.58;100679.50;5032940;28;20033;-77
2022/04/23 02:04:48;;;;;;;0.10;0.10;;;;;;;12.90;59.69;100673.34;5026677;28;20033;-77
2022/04/23 02:07:14;;;;;;;0.25;0.25;;;;;;;12.89;59.96;100667.13;5025422;28;20045;-78
2022/04/23 02:09:40;;;;;;;0.10;0.10;;;;;;;12.89;59.02;100672.44;5031761;28;20112;-77
2022/04/23 02:12:08;;;;;;;0.10;0.10;;;;;;;12.89;59.78;100664.47;5031536;28;20493;-77
2022/04/23 02:14:35;;;;;;;0.10;0.10;;;;;;;12.85;60.00;100667.31;5032657;28;20057;-77
2022/04/23 02:17:03;;;;;;;0.05;0.05;;;;;;;12.84;59.50;100670.88;5032119;28;20445;-77
2022/04/23 02:19:29;;;;;;;0.10;0.10;;;;;;;12.78;60.22;100666.63;5027771;28;20037;-77
2022/04/23 02:21:55;;;;;;;0.00;0.00;;;;;;;12.79;59.67;100677.19;5021344;28;20045;-77
2022/04/23 02:24:22;;;;;;;0.50;0.50;;;;;;;12.80;59.69;100670.09;5029893;28;20105;-77
2022/04/23 02:26:48;;;;;;;0.10;0.10;;;;;;;12.79;60.16;100671.00;5033557;28;20021;-77
2022/04/23 02:29:14;;;;;;;0.08;0.08;;;;;;;12.80;59.69;100672.75;5033614;28;20041;-77
2022/04/23 02:31:40;;;;;;;0.10;0.10;;;;;;;12.76;60.36;100666.66;5032042;28;20503;-77
2022/04/23 02:34:06;;;;;;;3.83;0.80;;;;;;;12.73;60.21;100673.88;5033222;28;20112;-77
2022/04/23 02:36:32;;;;;;;0.10;0.10;;;;;;;12.72;60.19;100669.47;5032963;28;20061;-77
2022/04/23 02:38:59;;;;;;;0.32;0.32;;;;;;;12.68;60.32;100674.00;5031214;28;20029;-77
2022/04/23 02:41:25;;;;;;;0.10;0.10;;;;;;;12.67;60.27;100661.63;5031306;28;20029;-77
2022/04/23 02:43:51;;;;;;;0.10;0.10;;;;;;;12.68;59.68;100673.16;5026401;28;20036;-77
2022/04/23 02:46:17;;;;;;;0.20;0.20;;;;;;;12.67;60.42;100682.03;5027113;28;20079;-77
2022/04/23 02:48:44;;;;;;;0.13;0.13;;;;;;;12.65;59.97;100670.56;5027779;28;20030;-77
2022/04/23 02:51:15;;;;;;;0.20;0.20;;;;;;;12.61;60.79;100670.69;5022651;28;20037;-76
2022/04/23 02:53:43;;;;;;;0.10;0.10;;;;;;;12.58;60.94;100668.09;5029465;28;20108;-77
2022/04/23 02:56:13;;;;;;;0.10;0.10;;;;;;;12.55;60.56;100678.84;5030622;28;20043;-77
2022/04/23 02:58:41;;;;;;;0.52;0.52;;;;;;;12.62;60.33;100679.50;5026789;28;20029;-77
2022/04/23 03:01:09;;;;;;;0.10;0.10;;;;;;;12.60;60.08;100676.91;5026813;28;20034;-77
2022/04/23 03:03:38;;;;;;;0.10;0.10;;;;;;;12.61;60.43;100673.34;5028221;28;20116;-77
2022/04/23 03:06:07;;;;;;;0.10;0.10;;;;;;;12.63;60.74;100670.63;5028262;28;20133;-77
2022/04/23 03:08:38;;;;;;;0.10;0.10;;;;;;;12.65;60.83;100667.91;5042995;28;20037;-76
2022/04/23 03:11:06;;;;;;;0.20;0.20;;;;;;;12.61;60.22;100677.75;5057007;28;20029;-76
2022/04/23 03:13:34;;;;;;;0.43;0.43;;;;;;;12.60;60.33;100676.91;5056452;28;20037;-76
2022/04/23 03:16:01;;;;;;;0.10;0.10;;;;;;;12.58;61.32;100676.06;5030505;28;20044;-77
2022/04/23 03:18:27;;;;;;;1.27;1.25;;;;;;;12.64;60.46;100671.50;5023690;28;20029;-77
2022/04/23 03:20:55;;;;;;;0.20;0.20;;;;;;;12.67;61.48;100672.25;5022087;28;20115;-77
2022/04/23 03:23:21;;;;;;;0.10;0.10;;;;;;;12.71;61.04;100667.72;5029396;28;20040;-77
2022/04/23 03:25:48;;;;;;;0.20;0.20;;;;;;;12.77;60.76;100672.84;5029267;28;20489;-77
2022/04/23 03:28:14;;;;;;;0.17;0.17;;;;;;;12.81;61.59;100669.19;5030176;28;20520;-77
2022/04/23 03:30:41;;;;;;;0.10;0.10;;;;;;;12.85;61.38;100665.50;5022440;28;20400;-77
2022/04/23 03:33:09;;;;;;;0.20;0.20;;;;;;;12.91;60.86;100665.31;5019127;28;20026;-77
2022/04/23 03:35:35;;;;;;;0.10;0.10;;;;;;;12.96;61.46;100667.81;5025461;28;20507;-77
2022/04/23 03:38:01;;;;;;;0.75;0.75;;;;;;;13.00;61.28;100660.63;5030044;28;20036;-77
2022/04/23 03:40:27;;;;;;;0.10;0.10;;;;;;;13.04;61.30;100665.75;5028817;28;20029;-77
2022/04/23 03:42:53;;;;;;;0.20;0.20;;;;;;;13.03;60.91;100673.78;5029147;28;20140;-76
2022/04/23 03:45:20;;;;;;;0.20;0.20;;;;;;;12.99;61.45;100657.06;5025786;28;20467;-77
2022/04/23 03:47:47;;;;;;;0.40;0.40;;;;;;;12.98;60.48;100660.63;5019977;28;20117;-77
2022/04/23 03:50:15;;;;;;;1.55;1.20;;;;;;;12.95;60.21;100655.44;5019169;28;20037;-77
2022/04/23 03:52:41;;;;;;;0.25;0.25;;;;;;;12.92;61.01;100661.72;5021855;28;20083;-77
2022/04/23 03:55:08;;;;;;;0.10;0.10;;;;;;;12.89;60.29;100661.81;5019320;28;20206;-77
2022/04/23 03:57:51;;;;;;;0.75;0.75;;;;;;;12.91;60.96;100660.00;5028378;28;20459;-77
2022/04/23 04:00:20;;;;;;;0.10;0.10;;;;;;;12.81;60.72;100657.66;5021116;28;20096;-77
2022/04/23 04:02:46;;;;;;;0.03;0.03;;;;;;;12.76;60.61;100652.50;5027634;28;20108;-77
2022/04/23 04:05:13;;;;;;;0.73;0.73;;;;;;;12.75;61.05;100653.44;5030347;28;20523;-77
2022/04/23 04:07:44;;;;;;;0.20;0.20;;;;;;;12.75;61.46;100648.13;5022960;28;20041;-77
2022/04/23 04:10:12;;;;;;;0.10;0.10;;;;;;;12.74;60.98;100641.91;5022504;28;20062;-77
2022/04/23 04:12:38;;;;;;;0.60;0.60;;;;;;;12.76;61.34;100640.09;5035858;28;20045;-77
2022/04/23 04:15:07;;;;;;;0.20;0.20;;;;;;;12.78;61.36;100642.69;5025028;28;20040;-77
2022/04/23 04:17:34;;;;;;;0.15;0.15;;;;;;;12.75;60.87;100637.47;5024105;28;20029;-77
2022/04/23 04:20:01;;;;;;;0.05;0.05;;;;;;;12.75;60.84;100642.81;5038362;28;20022;-77
2022/04/23 04:22:29;;;;;;;0.00;0.00;;;;;;;12.69;61.49;100635.88;5029213;28;20026;-77
2022/04/23 04:24:56;;;;;;;0.30;0.30;;;;;;;12.67;61.83;100628.88;5018458;28;20029;-77
2022/04/23 04:27:22;;;;;;;0.20;0.20;;;;;;;12.68;61.81;100627.97;5020803;28;20053;-77
2022/04/23 04:29:48;;;;;;;0.10;0.10;;;;;;;12.66;61.45;100629.78;5073811;22;20052;-78
2022/04/23 04:32:15;;;;;;;0.00;0.00;;;;;;;12.62;61.73;100627.25;5062129;28;20036;-78
2022/04/23 04:34:41;;;;;;;4.65;1.40;;;;;;;12.64;62.00;100634.31;5055513;28;20021;-77
2022/04/23 04:37:11;;;;;;;0.10;0.10;;;;;;;12.64;61.76;100624.53;5055068;28;20029;-77
2022/04/23 04:39:38;;;;;;;0.10;0.10;;;;;;;12.58;61.71;100625.59;5055035;28;20108;-78
2022/04/23 04:42:05;;;;;;;0.10;0.10;;;;;;;12.56;62.54;100626.56;5058191;28;20047;-78
2022/04/23 04:44:32;;;;;;;0.47;0.47;;;;;;;12.55;61.79;100625.69;5062379;28;20031;-78
2022/04/23 04:46:58;;;;;;;1.90;1.75;;;;;;;12.55;61.66;100631.00;5068288;28;20720;-78
2022/04/23 04:49:25;;;;;;;0.20;0.20;;;;;;;12.53;62.29;100632.84;5065178;28;20025;-78
2022/04/23 04:51:53;;;;;;;0.82;0.82;;;;;;;12.54;62.68;100623.94;5053529;28;20482;-77
2022/04/23 04:54:21;;;;;;;0.30;0.30;;;;;;;12.53;62.13;100630.19;5054444;28;20032;-78
2022/04/23 04:56:48;;;;;;;0.45;0.45;;;;;;;12.57;61.56;100631.84;5061143;28;20060;-77
2022/04/23 04:59:15;;;;;;;0.63;0.63;;;;;;;12.58;61.66;100640.66;5064201;28;20048;-77
2022/04/23 05:01:41;;;;;;;0.82;0.82;;;;;;;12.56;62.45;100638.06;5063756;28;20029;-77
2022/04/23 05:04:07;;;;;;;0.30;0.30;;;;;;;12.55;62.10;100638.13;5053750;28;20033;-77
2022/04/23 05:06:33;;;;;;;18.08;1.10;;;;;;;12.58;61.77;100644.19;5059595;28;20074;-77
2022/04/23 05:08:59;;;;;;;2.08;0.65;;;;;;;12.59;62.29;100639.75;5061780;28;20037;-77
2022/04/23 05:11:25;;;;;;;0.22;0.22;;;;;;;12.63;61.66;100654.69;5055684;28;20037;-77
2022/04/23 05:13:52;;;;;;;0.10;0.10;;;;;;;12.64;61.71;100645.78;5067109;28;20055;-77
2022/04/23 05:16:18;;;;;;;0.82;0.82;;;;;;;12.65;61.63;100646.66;5058608;28;20037;-78
2022/04/23 05:18:44;;;;;;;0.30;0.30;;;;;;;12.64;62.49;100656.41;5053803;28;20025;-77
2022/04/23 05:21:11;;;;;;;4.05;0.73;;;;;;;12.69;62.28;100654.47;5053391;28;20483;-77
2022/04/23 05:23:38;;;;;;;0.10;0.10;;;;;;;12.71;61.90;100651.78;5060533;28;20033;-77
2022/04/23 05:26:05;;;;;;;0.10;0.10;;;;;;;12.75;61.99;100648.13;5068954;28;20103;-77
2022/04/23 05:28:32;;;;;;;0.57;0.57;;;;;;;12.75;62.24;100648.13;5062145;28;20085;-77
2022/04/23 05:30:59;;;;;;;3.10;1.48;;;;;;;12.78;62.48;100658.63;5061755;28;20060;-77
2022/04/23 05:33:25;;;;;;;0.10;0.10;;;;;;;12.74;62.18;100651.69;5054444;28;20021;-77
2022/04/23 05:35:51;;;;;;;0.43;0.43;;;;;;;12.81;61.14;100647.91;5063922;28;20046;-78
2022/04/23 05:38:20;;;;;;;0.35;0.35;;;;;;;12.85;62.02;100649.56;5067544;28;20055;-77
2022/04/23 05:40:47;;;;;;;0.70;0.70;;;;;;;12.87;61.78;100650.38;5065415;28;20081;-77
2022/04/23 05:43:13;;;;;;;0.10;0.10;;;;;;;12.87;62.23;100649.50;5062530;28;20657;-77
2022/04/23 05:45:39;;;;;;;0.32;0.32;;;;;;;12.91;62.70;100646.69;5068863;28;20040;-77
2022/04/23 05:48:05;;;;;;;0.10;0.10;;;;;;;12.95;62.79;100650.97;5063917;28;20509;-77
2022/04/23 05:50:31;;;;;;;0.10;0.10;;;;;;;13.00;62.69;100656.16;5055859;28;20095;-77
2022/04/23 05:52:57;;;;;;;0.60;0.60;;;;;;;13.04;62.32;100656.91;5058309;28;20559;-78
2022/04/23 05:55:24;;;;;;;0.80;0.80;;;;;;;13.07;61.81;100659.47;5067156;28;20032;-77
2022/04/23 05:57:50;;;;;;;1.08;0.88;;;;;;;13.08;62.44;100659.44;5059466;28;20558;-77
2022/04/23 06:00:17;;;;;;;2.60;1.05;;;;;;;13.10;62.85;100656.72;5063158;28;20036;-77
2022/04/23 06:02:43;;;;;;;0.82;0.82;;;;;;;13.15;62.46;100659.22;5060908;28;20421;-77
2022/04/23 06:05:11;;;;;;;1.80;0.75;;;;;;;13.12;62.18;100665.50;5051367;28;20549;-77
2022/04/23 06:07:37;;;;;;;0.30;0.30;;;;;;;13.23;61.74;100659.81;5052960;28;20029;-77
2022/04/23 06:10:05;;;;;;;0.65;0.65;;;;;;;13.29;62.25;100659.63;5053584;28;20032;-77
2022/04/23 06:12:31;;;;;;;0.95;0.70;;;;;;;13.28;62.25;100652.56;5052300;28;20033;-77
2022/04/23 06:14:58;;;;;;;1.98;1.85;;;;;;;13.39;62.48;100661.06;5052904;28;20029;-77
2022/04/23 06:17:27;;;;;;;1.45;1.27;;;;;;;13.44;62.32;100658.25;5057531;28;20039;-77
2022/04/23 06:19:55;;;;;;;1.52;0.68;;;;;;;13.51;62.11;100670.44;5051677;28;20490;-77
2022/04/23 06:22:22;;;;;;;1.55;1.40;;;;;;;13.53;61.86;100657.06;5051825;28;20113;-77
2022/04/23 06:24:49;;;;;;;0.17;0.17;;;;;;;13.64;61.56;100652.22;5053501;28;20048;-78
2022/04/23 06:27:15;;;;;;;0.88;0.88;;;;;;;13.71;61.99;100650.22;5062393;28;20083;-78
2022/04/23 06:29:41;;;;;;;1.00;1.00;;;;;;;13.76;61.41;100648.25;5047972;28;20025;-78
2022/04/23 06:32:09;;;;;;;0.10;0.10;;;;;;;13.81;61.51;100648.94;5056625;28;20033;-78
2022/04/23 06:34:37;;;;;;;0.82;0.82;;;;;;;13.91;61.10;100647.69;5068001;28;20063;-78
2022/04/23 06:37:04;;;;;;;0.80;0.80;;;;;;;13.95;61.04;100652.91;5061670;28;20028;-78
2022/04/23 06:39:31;;;;;;;3.20;1.65;;;;;;;14.00;61.17;100640.28;5066938;28;20025;-78
2022/04/23 06:41:57;;;;;;;0.25;0.25;;;;;;;13.95;61.25;100636.94;5060848;28;20107;-78
2022/04/23 06:44:23;;;;;;;0.25;0.25;;;;;;;13.99;61.32;100642.06;5064684;28;20029;-77
2022/04/23 06:46:49;;;;;;;0.10;0.10;;;;;;;14.02;60.73;100644.63;5067176;28;20067;-77
2022/04/23 06:49:16;;;;;;;0.13;0.13;;;;;;;14.11;60.72;100643.41;5069011;28;20045;-78
2022/04/23 06:51:42;;;;;;;0.73;0.73;;;;;;;14.07;60.77;100647.13;5058241;28;20021;-77
2022/04/23 06:54:08;;;;;;;0.10;0.10;;;;;;;14.22;60.27;100640.34;5059318;28;20206;-78
2022/04/23 06:56:34;;;;;;;0.22;0.22;;;;;;;14.28;60.45;100640.09;5061347;28;20029;-77
2022/04/23 06:59:01;;;;;;;0.10;0.10;;;;;;;14.33;59.99;100632.78;5061594;28;20039;-78
2022/04/23 07:01:27;;;;;;;0.10;0.10;;;;;;;14.41;60.04;100635.16;5066176;28;20045;-78
2022/04/23 07:03:54;;;;;;;1.10;1.00;;;;;;;14.52;59.71;100634.75;5073516;28;20569;-77
2022/04/23 07:06:20;;;;;;;0.10;0.10;;;;;;;14.55;59.60;100639.94;5060903;28;20413;-78
2022/04/23 07:08:46;;;;;;;0.20;0.20;;;;;;;14.64;59.83;100641.38;5067315;28;20501;-77
2022/04/23 07:11:13;;;;;;;0.20;0.20;;;;;;;14.67;59.46;100635.94;5054338;28;20035;-78
2022/04/23 07:13:39;;;;;;;2.63;0.82;;;;;;;14.76;59.50;100638.22;5069303;28;20039;-78
2022/04/23 07:16:06;;;;;;;1.48;1.42;;;;;;;14.79;59.21;100640.78;5063594;28;20500;-78
2022/04/23 07:18:33;;;;;;;2.65;2.50;;;;;;;14.84;59.13;100628.13;5063190;28;20063;-77
2022/04/23 07:20:59;;;;;;;1.25;1.10;;;;;;;14.92;58.82;100629.63;5051004;28;20024;-77
2022/04/23 07:26:12;;;;;;;1.23;1.15;;;;;;;15.09;58.11;100626.22;5059474;28;20048;-78
2022/04/23 07:28:38;;;;;;;0.70;0.70;;;;;;;15.19;58.06;100625.78;5053840;28;20036;-77
2022/04/23 07:31:05;;;;;;;0.25;0.25;;;;;;;15.27;58.15;100624.59;5056650;28;20048;-76
2022/04/23 07:39:03;;;;;;;0.10;0.10;;;;;;;15.47;57.22;100621.03;5049518;28;20049;-77
2022/04/23 07:41:29;;;;;;;0.70;0.70;;;;;;;15.55;57.41;100620.69;5048638;28;20041;-77
2022/04/23 07:43:57;;;;;;;0.85;0.85;;;;;;;15.61;57.06;100610.59;5048847;28;20033;-77
2022/04/23 07:46:24;;;;;;;0.75;0.75;;;;;;;15.72;57.05;100612.78;5052644;28;20036;-77
2022/04/23 07:48:50;;;;;;;0.20;0.20;;;;;;;15.77;56.62;100609.91;5053613;28;20025;-79
2022/04/23 07:51:17;;;;;;;0.30;0.30;;;;;;;15.84;56.25;100606.94;5054158;28;20025;-78
2022/04/23 07:53:43;;;;;;;0.15;0.15;;;;;;;15.86;55.73;100601.50;5054669;28;20037;-77
2022/04/23 07:56:10;;;;;;;1.27;1.25;;;;;;;15.94;55.69;100593.16;5053571;28;20380;-77
2022/04/23 07:58:36;;;;;;;0.90;0.90;;;;;;;16.03;54.98;100608.75;5052544;28;20033;-77
2022/04/23 08:01:02;;;;;;;1.65;1.27;;;;;;;16.07;55.92;100599.63;5050147;28;20491;-77
2022/04/23 08:03:29;;;;;;;0.82;0.82;;;;;;;16.21;55.70;100607.00;5050444;28;20036;-77
2022/04/23 08:05:55;;;;;;;0.10;0.10;;;;;;;16.28;55.11;100595.09;5045109;28;20447;-74
2022/04/23 08:08:21;;;;;;;0.20;0.20;;;;;;;16.38;54.50;100603.53;5049664;28;20037;-75
2022/04/23 08:10:47;;;;;;;0.28;0.28;;;;;;;16.44;54.43;100599.72;5052221;28;20082;-76
2022/04/23 08:13:14;;;;;;;0.98;0.98;;;;;;;16.48;54.65;100594.13;5052011;28;20032;-78
2022/04/23 08:15:40;;;;;;;0.55;0.55;;;;;;;16.62;55.03;100590.78;5054910;28;20077;-77
2022/04/23 08:18:07;;;;;;;0.73;0.73;;;;;;;16.71;54.40;100578.75;5055304;28;20074;-77
2022/04/23 08:20:33;;;;;;;0.60;0.60;;;;;;;16.77;54.02;100573.09;5040933;28;20547;-77
2022/04/23 08:22:59;;;;;;;1.75;0.98;;;;;;;16.81;54.30;100580.03;5047266;28;20506;-77
2022/04/23 08:25:25;;;;;;;0.20;0.20;;;;;;;16.90;53.94;100575.16;5048669;28;20029;-77
2022/04/23 08:27:53;;;;;;;0.08;0.08;;;;;;;16.98;54.36;100576.53;5048629;28;20033;-77
2022/04/23 08:30:36;;;;;;;0.00;0.00;;;;;;;17.04;52.36;100570.00;5044136;28;20043;-77
2022/04/23 08:33:04;;;;;;;0.10;0.10;;;;;;;17.13;53.50;100572.19;5047523;28;20105;-76
2022/04/23 08:35:31;;;;;;;0.50;0.50;;;;;;;17.22;52.96;100580.69;5046304;28;20064;-77
2022/04/23 08:37:58;;;;;;;0.20;0.20;;;;;;;17.28;52.32;100585.72;5050862;28;20028;-77
2022/04/23 08:40:25;;;;;;;0.10;0.10;;;;;;;17.41;52.22;100580.59;5049060;28;20021;-77
2022/04/23 08:42:51;;;;;;;0.13;0.13;;;;;;;17.44;52.09;100578.59;5053499;28;20032;-77
2022/04/23 08:45:17;;;;;;;0.40;0.40;;;;;;;17.53;51.44;100581.75;5057194;28;20044;-76
2022/04/23 08:47:45;;;;;;;0.40;0.40;;;;;;;17.63;51.17;100572.25;5049411;28;20024;-76
2022/04/23 08:50:12;;;;;;;1.77;1.60;;;;;;;17.67;51.89;100563.13;5054186;28;20025;-77
2022/04/23 08:52:41;;;;;;;0.00;0.00;;;;;;;17.79;50.84;100575.88;5050152;28;20104;-75
2022/04/23 08:55:08;;;;;;;1.17;1.17;;;;;;;17.84;50.09;100566.69;5048561;28;20059;-76
2022/04/23 08:57:36;;;;;;;0.90;0.63;;;;;;;17.92;51.02;100561.78;5066905;28;20040;-76
2022/04/23 09:00:08;;;;;;;0.45;0.45;;;;;;;18.05;50.28;100562.84;5052210;28;20127;-75
2022/04/23 09:02:35;;;;;;;0.28;0.28;;;;;;;18.17;49.38;100560.44;5049060;28;20107;-76
2022/04/23 09:05:02;;;;;;;1.80;1.70;;;;;;;18.26;49.63;100565.28;5049118;28;20024;-75
2022/04/23 09:07:29;;;;;;;0.35;0.35;;;;;;;18.36;50.43;100565.63;5046378;28;20033;-75
2022/04/23 09:09:57;;;;;;;1.00;0.95;;;;;;;18.48;49.68;100548.84;5048748;28;20032;-75
2022/04/23 09:12:25;;;;;;;0.08;0.08;;;;;;;18.51;50.41;100547.78;5051760;28;20116;-77
2022/04/23 09:15:03;;;;;;;0.13;0.13;;;;;;;18.69;49.91;100549.41;5054749;28;20040;-76
2022/04/23 09:23:46;;;;;;;0.38;0.38;;;;;;;19.19;48.08;100550.03;5052402;28;20401;-75
2022/04/23 09:26:15;;;;;;;0.32;0.32;;;;;;;19.42;48.24;100555.81;5065632;28;20032;-75
2022/04/23 09:28:46;;;;;;;0.30;0.30;;;;;;;19.50;48.18;100555.31;5067929;28;20063;-75
2022/04/23 09:31:13;;;;;;;0.20;0.20;;;;;;;19.54;46.72;100559.56;5052343;28;20040;-75
2022/04/23 09:33:51;;;;;;;0.98;0.98;;;;;;;19.64;47.18;100552.66;5072378;28;20098;-74
2022/04/23 09:36:17;;;;;;;1.38;1.23;;;;;;;19.67;45.77;100548.91;5062743;28;20036;-75
2022/04/23 09:38:43;;;;;;;4.85;0.90;;;;;;;19.78;46.43;100548.25;5057037;28;20044;-77
2022/04/23 09:41:18;;;;;;;0.40;0.40;;;;;;;19.84;46.46;100555.94;5052335;28;20036;-76
2022/04/23 09:43:48;;;;;;;0.77;0.77;;;;;;;19.94;46.36;100545.44;5052814;28;20033;-75
2022/04/23 09:46:15;;;;;;;0.20;0.20;;;;;;;20.03;46.81;100548.41;5054651;28;20070;-75
2022/04/23 09:48:43;;;;;;;2.25;0.75;;;;;;;20.23;46.43;100551.63;5051106;28;20498;-75
2022/04/23 09:51:26;;;;;;;0.20;0.20;;;;;;;20.48;46.34;100544.63;5042343;28;20030;-76
2022/04/23 09:53:54;;;;;;;1.70;1.48;;;;;;;20.56;45.15;100557.59;5042058;28;20036;-76
2022/04/23 09:56:23;;;;;;;1.23;0.57;;;;;;;20.62;44.41;100541.03;5061076;28;20021;-76
2022/04/23 09:58:50;;;;;;;0.20;0.20;;;;;;;20.71;44.71;100548.53;5052778;28;20719;-76
2022/04/23 10:01:19;;;;;;;0.32;0.32;;;;;;;20.66;44.38;100551.50;5057487;28;20033;-76
2022/04/23 10:03:49;;;;;;;0.10;0.10;;;;;;;20.57;44.92;100545.84;5059748;28;20029;-75
2022/04/23 10:06:19;;;;;;;0.75;0.75;;;;;;;20.56;44.76;100547.69;5057709;28;20033;-76
2022/04/23 10:08:49;;;;;;;0.40;0.40;;;;;;;20.67;44.54;100545.16;5057362;28;20038;-76
2022/04/23 10:14:03;;;;;;;0.30;0.30;;;;;;;20.83;44.61;100534.19;5107889;27;20227;-76
2022/04/23 10:16:31;;;;;;;1.85;1.10;;;;;;;20.80;44.07;100539.81;5066061;28;20028;-76
2022/04/23 10:18:58;;;;;;;0.32;0.32;;;;;;;20.81;44.52;100540.66;5066290;28;20116;-76
2022/04/23 10:21:53;;;;;;;3.40;1.33;;;;;;;21.10;44.58;100543.22;5065367;28;20040;-76
2022/04/23 10:24:36;;;;;;;0.95;0.95;;;;;;;21.19;43.35;100531.78;5054842;28;20370;-76
2022/04/23 10:27:10;;;;;;;0.30;0.30;;;;;;;21.23;43.63;100543.22;5059833;28;20098;-77
2022/04/23 10:29:37;;;;;;;0.20;0.20;;;;;;;21.27;43.81;100548.28;5063290;28;20057;-76
2022/04/23 10:32:20;;;;;;;0.20;0.20;;;;;;;21.29;42.71;100540.94;5063789;28;20040;-76
2022/04/23 10:34:47;;;;;;;1.30;1.23;;;;;;;21.13;43.25;100541.19;5065707;28;20044;-76
2022/04/23 10:43:09;;;;;;;1.08;0.98;;;;;;;21.00;43.50;100541.13;5130302;27;20202;-77
2022/04/23 10:45:38;;;;;;;0.55;0.55;;;;;;;20.84;43.27;100535.09;5099110;28;20052;-77
2022/04/23 10:48:25;;;;;;;0.77;0.77;;;;;;;20.95;43.58;100537.06;5101925;28;20382;-77
2022/04/23 10:51:16;;;;;;;0.80;0.80;;;;;;;20.95;43.28;100540.59;5101536;28;20024;-77
2022/04/23 10:56:19;;;;;;;0.10;0.10;;;;;;;21.10;43.86;100529.75;5061576;27;20166;-77
2022/04/23 10:58:46;;;;;;;1.73;1.50;;;;;;;21.17;44.07;100533.72;5025681;28;20087;-77
2022/04/23 11:12:55;;;;;;;0.38;0.38;;;;;;;21.94;42.24;100525.59;5073107;28;20044;-77
2022/04/23 11:15:21;;;;;;;0.10;0.10;;;;;;;22.07;41.76;100524.69;5064250;28;20085;-76
2022/04/23 11:17:55;;;;;;;0.30;0.30;;;;;;;22.18;40.87;100516.69;5064546;28;20049;-76
2022/04/23 11:20:31;;;;;;;0.40;0.40;;;;;;;22.29;41.50;100516.72;5067145;28;20387;-77
2022/04/23 11:23:00;;;;;;;5.45;1.23;;;;;;;22.39;41.93;100508.84;5072625;28;20051;-77
2022/04/23 11:25:26;;;;;;;0.40;0.40;;;;;;;22.46;40.38;100498.44;5062460;28;20047;-75
2022/04/23 11:27:53;;;;;;;0.68;0.68;;;;;;;22.52;39.89;100502.50;5065836;28;20112;-75
2022/04/23 11:30:29;;;;;;;0.17;0.17;;;;;;;22.72;40.23;100509.09;5065570;28;20019;-75
2022/04/23 11:32:55;;;;;;;1.65;1.55;;;;;;;22.78;40.19;100504.06;5059264;28;20016;-75
2022/04/23 11:35:29;;;;;;;0.52;0.52;;;;;;;22.97;40.93;100505.34;5059874;28;20040;-75
2022/04/23 11:37:55;;;;;;;0.35;0.35;;;;;;;23.09;40.09;100500.81;5066002;28;20024;-76
2022/04/23 11:40:28;;;;;;;0.32;0.32;;;;;;;23.31;40.65;100499.16;5066440;28;20029;-76
2022/04/23 11:42:54;;;;;;;0.47;0.47;;;;;;;23.40;40.46;100487.59;5059973;28;20028;-76
2022/04/23 11:45:22;;;;;;;0.30;0.30;;;;;;;23.42;38.91;100497.31;5065241;28;20538;-75
2022/04/23 11:47:49;;;;;;;0.45;0.45;;;;;;;23.40;38.14;100483.09;5064027;28;20027;-76
2022/04/23 11:50:17;;;;;;;1.05;0.95;;;;;;;23.55;38.99;100491.81;5058193;28;20021;-76
2022/04/23 11:52:45;;;;;;;1.77;0.93;;;;;;;23.57;38.88;100499.78;5060231;28;20547;-76
2022/04/23 11:55:27;;;;;;;0.30;0.30;;;;;;;23.76;38.28;100488.31;5065222;28;20040;-75
2022/04/23 11:57:59;;;;;;;0.77;0.77;;;;;;;23.84;38.50;100480.47;5065796;28;20033;-75
2022/04/23 12:00:26;;;;;;;0.25;0.25;;;;;;;23.75;38.28;100486.59;5069852;28;20045;-76
2022/04/23 12:02:53;;;;;;;0.85;0.85;;;;;;;23.91;39.01;100486.22;5060918;28;20028;-76
2022/04/23 12:05:34;;;;;;;0.10;0.10;;;;;;;24.10;39.19;100484.72;5060516;28;20037;-77